North Attleboro, MA (02763)

7:17 AM EDT on July 29, 2016 (GMT -0400)
Smith Street | | Change Station

Elev 195 ft 41.98 °N, 71.32 °W | Updated 7 seconds ago

Scattered Clouds
Scattered Clouds
72.9 °F
Feels Like 71 °F
N
0.0
Wind Variable Wind from South
Gusts 0.0 mph

Today
High -- | Low -- °F
--% Chance of Precip.
Yesterday
High -- | Low -- °F
Precip. -- in
Pressure 29.87 in
Visibility 10.0 miles
Clouds Scattered Clouds 12000 ft
Heat Index 71 °F
Dew Point 69 °F
Humidity 89%
Rainfall 0.00 in
Snow Depth Not available.
5:36 AM 8:06 PM
Waning Crescent, 23% visible
METAR KSFZ 291115Z 00000KT 10SM SCT120 21/19 A2987 RMK AO1
Pressure 29.87 in
Visibility 10.0 miles
Clouds Scattered Clouds 12000 ft
Heat Index 71 °F
Dew Point 69 °F
Humidity 89%
Rainfall 0.00 in
Snow Depth Not available.
5:36 AM 8:06 PM
Waning Crescent, 23% visible
METAR KSFZ 291115Z 00000KT 10SM SCT120 21/19 A2987 RMK AO1

10-Day Weather Forecast

Almanac

Astronomy

Jul. 29, 2016 Rise Set
Actual Time
Civil Twilight
Nautical Twilight
Astronomical Twilight
Moon
Length of Visible Light
Length of Day
Tomorrow will be .
, % of the Moon is Illuminated

Today's Extremes

State Highs State Lows

Community

WunderPhotos

Upload Photos

1,928,312 photos uploaded!

WunderBlog® & News

Nearby

Air Quality

  Air Quality AQ Index Pollutant
Not available.

Snow Depth

Station Depth Elevation

Earthquake Activity

City Distance Mag. Time & Date
Minimum magnitude displayed is 2.5.

Coastal Water Temperatures

Place Temperature

Stations

Nearby Weather Stations

Station Location Temp. Windchill Dew Point Humidity Wind Precip. Elev Updated Type
                   

Watches & Warnings

Flood Watch / Flood Statement
Issued: 7:05 AM EDT Jul. 29, 2016 – National Weather Service

... Flash Flood Watch is cancelled...

The Flash Flood Watch for portions of southeastern Massachusetts
and Rhode Island has been cancelled. While rainfall is expected
today... it will not be heavy enough to produce flash flooding.